Bentley, Illinois
Current Conditions -  °F | °C
As of 6:35 PM on Sunday 21 Dec 2014 (Local Time) from KMQB Reporting Station
Overcast Overcast  
Wind Chill: -2°   Ceiling: 2600
Heat Index:   Visibility: 7mi
Dew Point:   Wind: 14mph
Humidity: 89%   Direction: 150°SSE
Pressure: 30"   Gusts: 20mph
Location:  40.4155°N, 91.0269°W
Report Text: KMQB 220035Z AUTO 15012G17KT 7SM BKN026 OVC042 03/01 A3000 RMK AO2 T00270010
Loading
Personal Weather Stations






























Interactive Weather Map New forecast layout! Learn more

10-Day Weather Forecast

Advertisements
Track Severe Weather on mobile